El-djazair II — 7TBR — position and weather

sailwx.info

Track history (hours):
 
Tides and Currents Weather Stations Pressure Air Temp Water Temp Dewpoint Dewpoint Depression Visibility Wind Speed Wind Dir Waves Ship Positions

El-djazair II

Last reported at 2017-Mar-23 05:30 UTC. Time now 2017-Mar-23 12:34 UTC.
Position N 37°50' W 000°23'.

Length 146 m; draft 6.3 m.

Type: Passenger vessel. MMSI: 605026190.

Date/timePositionNaut miles runAvg speedWind from/ knotsBaromVisibWave heightAir tempDewpointWater temp
2017-Mar-23 05:30N 37°50' W 000°23'1919.7
2017-Mar-23 04:34N 37°33' W 000°30'1919.3
2017-Mar-23 03:33N 37°18' W 000°46'  
2017-Mar-17 23:31N 37°36' W 000°25'1 0.1
2017-Mar-17 05:33N 37°35' W 000°24'106 4.2
2017-Mar-16 04:29N 38°27' E 001°34'2021.8
2017-Mar-16 03:33N 38°45' E 001°44'2221.8
2017-Mar-16 02:34N 39°05' E 001°55'2221.8
2017-Mar-16 01:33N 39°25' E 002°06'2221.7
2017-Mar-16 00:33N 39°45' E 002°18'2222.4
2017-Mar-15 23:33N 40°04' E 002°34'2222.2
2017-Mar-15 22:33N 40°22' E 002°50'2322.5
2017-Mar-15 21:33N 40°41' E 003°06'2222.1
2017-Mar-15 20:33N 40°59' E 003°22'2222.0
2017-Mar-15 19:33N 41°18' E 003°38'2222.1
2017-Mar-15 18:34N 41°37' E 003°54'2222.4
2017-Mar-15 17:33N 41°56' E 004°10'2222.4
2017-Mar-15 16:33N 42°15' E 004°26'2222.3
2017-Mar-15 15:34N 42°33' E 004°42'4522.5
2017-Mar-15 13:33N 43°11' E 005°15'8 7.4
2017-Mar-15 12:28N 43°18' E 005°22'0 0.0
2017-Mar-15 11:25N 43°18' E 005°22'0 0.0
2017-Mar-15 10:13N 43°18' E 005°22'0 0.0
2017-Mar-15 09:31N 43°18' E 005°22'0 0.0
2017-Mar-15 08:28N 43°18' E 005°22'0 0.0
2017-Mar-15 07:16N 43°18' E 005°22'0 0.0
2017-Mar-15 06:28N 43°18' E 005°22'0 0.0
2017-Mar-15 05:33N 43°18' E 005°22'0 0.0
2017-Mar-15 01:06N 43°18' E 005°22'0 0.0
2017-Mar-14 21:27N 43°18' E 005°22'0 0.0
2017-Mar-14 17:33N 43°18' E 005°22'0 0.0
2017-Mar-14 16:33N 43°18' E 005°22'0 0.0
2017-Mar-14 15:33N 43°18' E 005°22'0 0.0
2017-Mar-14 14:21N 43°18' E 005°22'0 0.0
2017-Mar-14 13:27N 43°18' E 005°22'0 0.0
2017-Mar-14 12:33N 43°18' E 005°22'0 0.0
2017-Mar-14 11:24N 43°18' E 005°22'0 0.0
2017-Mar-14 10:21N 43°18' E 005°22'0 0.0
2017-Mar-14 09:12N 43°18' E 005°22'0 0.0
2017-Mar-14 08:21N 43°18' E 005°22'0 0.0
2017-Mar-14 07:33N 43°18' E 005°22'2 2.3
2017-Mar-14 06:33N 43°17' E 005°19'2119.6
2017-Mar-14 05:29N 42°56' E 005°23'2820.3
2017-Mar-14 04:06N 42°29' E 005°33'  
Track history (hours):
 
Tides and Currents Weather Stations Pressure Air Temp Water Temp Dewpoint Dewpoint Depression Visibility Wind Speed Wind Dir Waves Ship Positions

El-djazair II

Last reported at 2017-Mar-23 05:30 UTC. Time now 2017-Mar-23 12:34 UTC.
Position N 37°50' W 000°23'.

Length 146 m; draft 6.3 m.

Type: Passenger vessel. MMSI: 605026190.

Date/timePositionNaut miles runAvg speedWind from/ knotsBaromVisibWave heightAir tempDewpointWater temp
2017-Mar-23 05:30N 37°50' W 000°23'1919.7
2017-Mar-23 04:34N 37°33' W 000°30'1919.3
2017-Mar-23 03:33N 37°18' W 000°46'  
2017-Mar-17 23:31N 37°36' W 000°25'1 0.1
2017-Mar-17 05:33N 37°35' W 000°24'106 4.2
2017-Mar-16 04:29N 38°27' E 001°34'2021.8
2017-Mar-16 03:33N 38°45' E 001°44'2221.8
2017-Mar-16 02:34N 39°05' E 001°55'2221.8
2017-Mar-16 01:33N 39°25' E 002°06'2221.7
2017-Mar-16 00:33N 39°45' E 002°18'2222.4
2017-Mar-15 23:33N 40°04' E 002°34'2222.2
2017-Mar-15 22:33N 40°22' E 002°50'2322.5
2017-Mar-15 21:33N 40°41' E 003°06'2222.1
2017-Mar-15 20:33N 40°59' E 003°22'2222.0
2017-Mar-15 19:33N 41°18' E 003°38'2222.1
2017-Mar-15 18:34N 41°37' E 003°54'2222.4
2017-Mar-15 17:33N 41°56' E 004°10'2222.4
2017-Mar-15 16:33N 42°15' E 004°26'2222.3
2017-Mar-15 15:34N 42°33' E 004°42'4522.5
2017-Mar-15 13:33N 43°11' E 005°15'8 7.4
2017-Mar-15 12:28N 43°18' E 005°22'0 0.0
2017-Mar-15 11:25N 43°18' E 005°22'0 0.0
2017-Mar-15 10:13N 43°18' E 005°22'0 0.0
2017-Mar-15 09:31N 43°18' E 005°22'0 0.0
2017-Mar-15 08:28N 43°18' E 005°22'0 0.0
2017-Mar-15 07:16N 43°18' E 005°22'0 0.0
2017-Mar-15 06:28N 43°18' E 005°22'0 0.0
2017-Mar-15 05:33N 43°18' E 005°22'0 0.0
2017-Mar-15 01:06N 43°18' E 005°22'0 0.0
2017-Mar-14 21:27N 43°18' E 005°22'0 0.0
2017-Mar-14 17:33N 43°18' E 005°22'0 0.0
2017-Mar-14 16:33N 43°18' E 005°22'0 0.0
2017-Mar-14 15:33N 43°18' E 005°22'0 0.0
2017-Mar-14 14:21N 43°18' E 005°22'0 0.0
2017-Mar-14 13:27N 43°18' E 005°22'0 0.0
2017-Mar-14 12:33N 43°18' E 005°22'0 0.0
2017-Mar-14 11:24N 43°18' E 005°22'0 0.0
2017-Mar-14 10:21N 43°18' E 005°22'0 0.0
2017-Mar-14 09:12N 43°18' E 005°22'0 0.0
2017-Mar-14 08:21N 43°18' E 005°22'0 0.0
2017-Mar-14 07:33N 43°18' E 005°22'2 2.3
2017-Mar-14 06:33N 43°17' E 005°19'2119.6
2017-Mar-14 05:29N 42°56' E 005°23'2820.3
2017-Mar-14 04:06N 42°29' E 005°33'  

Dump ship's entire track history